Time;durP1;ratioP1;P1;durP2;ratioP2;P2;SDS_P1;SDS_P2;PMS_P1;PMS_P2;Temp;Humidity;BMP_temperature;BMP_pressure;BME280_temperature;BME280_humidity;BME280_pressure;Samples;Min_cycle;Max_cycle;Signal;HPM_P1;HPM_P2
2021/07/29 00:02:00;;;;;;;4.55;4.30;;;;;;;20.48;75.60;100434.59;5959685;29;20210;-75
2021/07/29 00:05:05;;;;;;;4.05;3.75;;;;;;;20.50;76.58;100440.66;5958989;30;20249;-76
2021/07/29 00:08:10;;;;;;;8.57;4.50;;;;;;;20.45;76.09;100426.88;5959235;29;20194;-76
2021/07/29 00:11:19;;;;;;;4.75;4.35;;;;;;;20.52;75.76;100427.34;5958712;30;20451;-76
2021/07/29 00:14:26;;;;;;;3.97;3.80;;;;;;;20.48;75.62;100431.81;5959062;30;20292;-76
2021/07/29 00:20:51;;;;;;;4.70;4.40;;;;;;;20.47;76.41;100430.16;5958950;30;20214;-76
2021/07/29 00:23:57;;;;;;;4.60;4.30;;;;;;;20.47;76.69;100419.06;5959861;30;20193;-76
2021/07/29 00:27:01;;;;;;;4.43;4.18;;;;;;;20.40;78.15;100421.38;5958429;29;20448;-75
2021/07/29 00:30:09;;;;;;;4.80;4.40;;;;;;;20.40;78.78;100418.59;5959610;30;20200;-75
2021/07/29 00:33:17;;;;;;;4.43;4.03;;;;;;;20.38;77.88;100420.84;5959073;29;20285;-76
2021/07/29 00:36:23;;;;;;;4.45;4.05;;;;;;;20.45;78.33;100426.88;5959418;30;20193;-75
2021/07/29 00:39:30;;;;;;;4.25;4.15;;;;;;;20.44;79.06;100426.03;5959272;29;20258;-75
2021/07/29 00:42:34;;;;;;;4.50;4.20;;;;;;;20.45;77.98;100421.31;5959557;30;20259;-75
2021/07/29 00:45:40;;;;;;;4.90;4.60;;;;;;;20.46;77.93;100411.91;5958141;30;20484;-76
2021/07/29 00:48:44;;;;;;;4.25;3.95;;;;;;;20.42;78.66;100402.50;5959300;30;20454;-75
2021/07/29 00:51:49;;;;;;;5.70;4.75;;;;;;;20.42;78.29;100406.09;5957724;30;20663;-75
2021/07/29 00:54:53;;;;;;;4.85;4.65;;;;;;;20.36;78.25;100400.94;5957867;30;20428;-75
2021/07/29 00:57:58;;;;;;;4.70;4.50;;;;;;;20.30;78.72;100408.44;5958405;29;20250;-76
2021/07/29 01:01:07;;;;;;;5.28;4.97;;;;;;;20.29;78.52;100400.41;5957813;30;20258;-75
2021/07/29 01:04:12;;;;;;;6.53;5.22;;;;;;;20.28;78.83;100398.78;5958628;30;20304;-76
2021/07/29 01:07:16;;;;;;;5.30;4.90;;;;;;;20.31;79.21;100392.66;5958905;30;20234;-76
2021/07/29 01:10:20;;;;;;;5.53;5.13;;;;;;;20.33;79.37;100390.41;5958937;30;20201;-76
2021/07/29 01:13:25;;;;;;;5.50;4.95;;;;;;;20.28;79.56;100387.69;5957396;30;20558;-77
2021/07/29 01:16:31;;;;;;;7.40;5.07;;;;;;;20.33;79.61;100384.88;5958813;30;20201;-75
2021/07/29 01:19:35;;;;;;;6.05;5.47;;;;;;;20.27;79.34;100386.88;5958341;30;20194;-75
2021/07/29 01:22:40;;;;;;;5.30;4.90;;;;;;;20.21;79.52;100384.41;5958595;30;20198;-76
2021/07/29 01:25:47;;;;;;;5.32;5.00;;;;;;;20.27;79.03;100386.88;5957376;30;20205;-75
2021/07/29 01:28:53;;;;;;;5.13;4.72;;;;;;;20.29;79.42;100383.78;5957128;30;20367;-75
2021/07/29 01:31:57;;;;;;;5.32;5.10;;;;;;;20.29;80.23;100386.56;5957481;30;20217;-76
2021/07/29 01:35:01;;;;;;;5.10;4.72;;;;;;;20.28;79.58;100382.16;5956984;30;20268;-75
2021/07/29 01:38:07;;;;;;;5.53;5.10;;;;;;;20.31;79.67;100381.59;5957682;30;20193;-75
2021/07/29 01:41:13;;;;;;;5.32;5.10;;;;;;;20.29;80.63;100369.94;5958157;30;20201;-75
2021/07/29 01:44:18;;;;;;;5.50;5.13;;;;;;;20.20;80.71;100371.69;5957286;29;20200;-75
2021/07/29 01:47:22;;;;;;;5.53;5.22;;;;;;;20.18;80.62;100373.91;5957509;29;20201;-76
2021/07/29 01:50:26;;;;;;;5.47;5.18;;;;;;;20.27;80.66;100374.94;5957422;30;20225;-75
2021/07/29 01:53:32;;;;;;;5.53;5.03;;;;;;;20.29;80.51;100364.41;5956732;30;20508;-75
2021/07/29 01:56:37;;;;;;;5.60;5.15;;;;;;;20.18;81.28;100368.38;5956780;30;20201;-75
2021/07/29 01:59:44;;;;;;;4.95;4.78;;;;;;;20.18;80.48;100365.59;5956659;30;20540;-75
2021/07/29 02:02:48;;;;;;;5.60;5.20;;;;;;;20.18;80.98;100362.84;5957427;30;20209;-76
2021/07/29 02:06:02;;;;;;;6.40;5.90;;;;;;;20.16;80.93;100356.78;5956700;30;20193;-75
2021/07/29 02:09:10;;;;;;;5.18;4.80;;;;;;;20.14;81.15;100358.97;5957549;30;20266;-76
2021/07/29 02:12:14;;;;;;;6.05;5.63;;;;;;;20.21;81.50;100359.50;5956679;30;20285;-76
2021/07/29 02:15:22;;;;;;;7.75;5.85;;;;;;;20.08;81.33;100352.66;5958009;30;20244;-76
2021/07/29 02:18:28;;;;;;;5.82;5.30;;;;;;;20.11;81.07;100354.06;5957862;30;20201;-76
2021/07/29 02:21:35;;;;;;;7.63;5.38;;;;;;;20.14;81.75;100354.28;5956422;30;20243;-75
2021/07/29 02:24:40;;;;;;;5.80;5.40;;;;;;;20.16;81.41;100352.03;5957168;30;20243;-75
2021/07/29 02:27:47;;;;;;;5.72;5.32;;;;;;;20.18;81.08;100346.22;5957780;30;20201;-75
2021/07/29 02:30:51;;;;;;;5.88;5.60;;;;;;;20.13;81.45;100351.81;5957496;29;20269;-75
2021/07/29 02:33:57;;;;;;;5.80;5.40;;;;;;;20.16;82.21;100345.69;5957364;30;20288;-75
2021/07/29 02:37:01;;;;;;;6.50;5.88;;;;;;;20.09;82.54;100343.25;5957622;30;20266;-75
2021/07/29 02:40:08;;;;;;;5.97;5.60;;;;;;;20.10;82.65;100346.84;5957649;30;20241;-76
2021/07/29 02:43:13;;;;;;;6.28;5.75;;;;;;;20.16;82.32;100351.22;5957364;30;20197;-75
2021/07/29 02:46:17;;;;;;;9.98;6.07;;;;;;;20.15;82.33;100349.56;5956363;30;20225;-75
2021/07/29 02:49:24;;;;;;;6.15;5.78;;;;;;;20.19;81.69;100348.69;5957430;30;20203;-76
2021/07/29 02:52:28;;;;;;;6.28;5.78;;;;;;;20.17;81.69;100341.78;5956236;30;20533;-75
2021/07/29 02:55:33;;;;;;;6.38;5.97;;;;;;;20.13;82.40;100340.72;5956194;30;20194;-76
2021/07/29 02:58:38;;;;;;;6.05;5.72;;;;;;;20.07;82.52;100341.88;5959296;29;20561;-76
2021/07/29 03:01:42;;;;;;;6.50;6.03;;;;;;;20.11;82.20;100331.91;5961456;29;20198;-75
2021/07/29 03:04:48;;;;;;;5.85;5.43;;;;;;;20.11;82.11;100338.22;5960525;30;20612;-75
2021/07/29 03:07:52;;;;;;;6.00;5.50;;;;;;;20.04;82.67;100336.94;5960193;30;20438;-75
2021/07/29 03:10:58;;;;;;;6.38;6.00;;;;;;;19.99;83.08;100341.41;5960218;30;20384;-76
2021/07/29 03:14:03;;;;;;;6.18;5.82;;;;;;;19.95;83.68;100350.59;5960507;29;20257;-76
2021/07/29 03:17:07;;;;;;;6.20;5.57;;;;;;;19.98;82.94;100339.75;5961345;30;20201;-76
2021/07/29 03:20:12;;;;;;;5.90;5.50;;;;;;;20.05;82.42;100344.97;5961291;30;20235;-76
2021/07/29 03:23:19;;;;;;;6.43;5.82;;;;;;;20.03;82.87;100346.38;5960892;30;20197;-76
2021/07/29 03:26:24;;;;;;;6.38;5.85;;;;;;;20.03;83.16;100335.28;5961050;30;20200;-76
2021/07/29 03:29:29;;;;;;;6.30;5.90;;;;;;;20.00;83.59;100343.03;5960597;30;20201;-75
2021/07/29 03:32:35;;;;;;;6.15;5.63;;;;;;;19.99;83.12;100341.41;5959964;30;20194;-76
2021/07/29 03:35:40;;;;;;;6.40;6.07;;;;;;;20.00;83.28;100334.75;5959719;29;20209;-76
2021/07/29 03:38:44;;;;;;;6.22;5.93;;;;;;;19.95;83.49;100334.78;5959522;30;20193;-75
2021/07/29 03:41:50;;;;;;;6.13;5.65;;;;;;;20.02;83.07;100336.41;5959591;29;20503;-75
2021/07/29 03:44:56;;;;;;;6.10;5.68;;;;;;;19.99;83.15;100340.56;5960736;30;20239;-76
2021/07/29 03:48:00;;;;;;;11.18;5.75;;;;;;;19.96;83.17;100330.91;5959341;30;20277;-76
2021/07/29 03:51:12;;;;;;;7.05;5.68;;;;;;;19.98;83.07;100336.97;5959287;30;20384;-75
2021/07/29 03:54:18;;;;;;;5.50;5.28;;;;;;;20.00;82.37;100339.47;5959108;30;20476;-75
2021/07/29 03:57:23;;;;;;;6.57;6.15;;;;;;;20.02;82.90;100345.53;5960124;30;20194;-75
2021/07/29 04:00:30;;;;;;;6.40;5.93;;;;;;;19.95;82.82;100334.78;5960112;30;20193;-76
2021/07/29 04:03:34;;;;;;;6.72;6.15;;;;;;;20.05;83.47;100338.59;5959665;30;20241;-75
2021/07/29 04:06:40;;;;;;;6.75;6.18;;;;;;;20.10;82.66;100330.22;5959140;30;20200;-76
2021/07/29 04:09:44;;;;;;;6.28;5.60;;;;;;;20.09;82.85;100328.56;5959468;29;20225;-76
2021/07/29 04:12:54;;;;;;;6.60;6.00;;;;;;;20.15;82.58;100327.41;5958829;29;20553;-75
2021/07/29 04:16:04;;;;;;;5.93;5.53;;;;;;;20.18;81.58;100329.59;5959142;30;20197;-76
2021/07/29 04:19:08;;;;;;;6.30;5.90;;;;;;;20.20;82.08;100330.13;5959942;29;20201;-75
2021/07/29 04:22:16;;;;;;;6.60;6.20;;;;;;;20.21;82.19;100331.78;5958658;30;20485;-76
2021/07/29 04:25:23;;;;;;;6.50;5.95;;;;;;;20.19;82.24;100334.00;5959502;30;20260;-76
2021/07/29 04:28:41;;;;;;;6.45;6.05;;;;;;;20.19;82.51;100322.94;5959576;29;20284;-76
2021/07/29 04:31:45;;;;;;;7.40;6.47;;;;;;;20.19;82.88;100322.94;5959735;30;20194;-75
2021/07/29 04:34:49;;;;;;;7.45;6.78;;;;;;;20.19;82.49;100318.22;5959168;30;20296;-75
2021/07/29 04:37:53;;;;;;;6.47;6.18;;;;;;;20.27;82.54;100322.31;5959476;30;20235;-76
2021/07/29 04:41:03;;;;;;;6.07;5.78;;;;;;;20.29;83.29;100317.31;5959601;29;20194;-76
2021/07/29 04:44:11;;;;;;;9.07;6.70;;;;;;;20.29;81.82;100317.31;5958661;30;20273;-75
2021/07/29 04:47:17;;;;;;;6.63;6.03;;;;;;;20.34;82.00;100320.03;5959086;29;20200;-76
2021/07/29 04:50:21;;;;;;;6.60;6.10;;;;;;;20.38;81.27;100315.56;5958033;29;20502;-76
2021/07/29 04:53:25;;;;;;;7.40;6.45;;;;;;;20.37;81.30;100305.59;5959061;30;20225;-76
2021/07/29 04:56:31;;;;;;;6.82;6.28;;;;;;;20.34;81.24;100298.69;5958932;30;20301;-77
2021/07/29 04:59:39;;;;;;;7.70;6.95;;;;;;;20.38;81.40;100310.84;5957980;30;20197;-75
2021/07/29 05:02:43;;;;;;;7.18;6.63;;;;;;;20.40;80.94;100303.06;5957699;30;20489;-76
2021/07/29 05:05:47;;;;;;;7.32;6.85;;;;;;;20.44;80.57;100309.66;5957772;30;20397;-76
2021/07/29 05:08:54;;;;;;;6.47;5.97;;;;;;;20.54;80.37;100311.50;5957636;30;20383;-76
2021/07/29 05:11:58;;;;;;;7.50;6.78;;;;;;;20.52;80.21;100310.94;5957556;30;20201;-76
2021/07/29 05:15:07;;;;;;;7.32;6.60;;;;;;;20.45;81.02;100310.50;5958407;30;20289;-75
2021/07/29 05:18:20;;;;;;;7.00;6.50;;;;;;;20.50;81.34;100307.66;5958437;30;20267;-76
2021/07/29 05:21:25;;;;;;;6.55;6.15;;;;;;;20.63;81.23;100306.94;5957690;29;20235;-76
2021/07/29 05:24:29;;;;;;;7.07;6.57;;;;;;;20.71;80.51;100309.06;5958599;30;20197;-76
2021/07/29 05:27:33;;;;;;;8.27;6.43;;;;;;;20.73;79.87;100306.81;5958170;30;20315;-76
2021/07/29 05:30:39;;;;;;;7.80;6.35;;;;;;;20.74;79.46;100302.09;5957444;30;20211;-76
2021/07/29 05:33:44;;;;;;;6.85;6.35;;;;;;;20.72;78.77;100309.91;5956991;30;20216;-76
2021/07/29 05:36:48;;;;;;;6.63;6.03;;;;;;;20.73;79.73;100301.28;5957226;30;20217;-76
2021/07/29 05:39:57;;;;;;;6.20;5.90;;;;;;;20.81;78.06;100303.38;5957144;29;20533;-76
2021/07/29 05:43:01;;;;;;;6.32;5.63;;;;;;;20.80;77.21;100307.28;5956929;30;20457;-75
2021/07/29 05:46:12;;;;;;;5.85;5.47;;;;;;;20.90;76.63;100303.56;5957200;29;20311;-75
2021/07/29 05:49:16;;;;;;;5.97;5.45;;;;;;;20.88;75.58;100306.63;5958050;30;20270;-75
2021/07/29 05:52:23;;;;;;;5.85;5.38;;;;;;;21.02;76.20;100309.50;5957824;30;20231;-75
2021/07/29 05:55:27;;;;;;;5.28;5.00;;;;;;;21.13;74.69;100303.50;5957552;30;20244;-75
2021/07/29 05:58:33;;;;;;;6.30;5.70;;;;;;;21.25;74.56;100305.03;5957707;30;20194;-74
2021/07/29 06:01:38;;;;;;;5.22;4.93;;;;;;;21.37;74.55;100300.66;5956655;29;20193;-74
2021/07/29 06:04:43;;;;;;;7.13;5.03;;;;;;;21.46;73.21;100292.50;5956523;30;20249;-75
2021/07/29 06:07:47;;;;;;;5.72;4.63;;;;;;;21.58;72.60;100301.19;5957751;30;20235;-75
2021/07/29 06:10:54;;;;;;;4.50;4.30;;;;;;;21.69;71.68;100291.56;5957508;30;20193;-75
2021/07/29 06:13:58;;;;;;;4.30;4.20;;;;;;;21.78;70.22;100289.72;5957647;30;20243;-75
2021/07/29 06:17:05;;;;;;;4.88;4.68;;;;;;;21.83;68.31;100282.13;5956850;29;20229;-75
2021/07/29 06:20:13;;;;;;;4.35;4.10;;;;;;;21.93;68.89;100278.38;5957718;29;20200;-74
2021/07/29 06:23:20;;;;;;;5.22;4.80;;;;;;;22.01;68.60;100277.69;5956528;30;20450;-75
2021/07/29 06:26:24;;;;;;;4.28;4.07;;;;;;;22.14;68.53;100271.31;5956795;30;20229;-75
2021/07/29 06:29:28;;;;;;;4.57;4.38;;;;;;;22.26;68.49;100279.16;5956314;30;20193;-75
2021/07/29 06:32:37;;;;;;;5.15;4.57;;;;;;;22.34;68.44;100278.47;5958277;29;20232;-75
2021/07/29 06:35:41;;;;;;;4.80;4.60;;;;;;;22.39;67.77;100268.03;5960624;30;20521;-75
2021/07/29 06:38:47;;;;;;;5.32;4.30;;;;;;;22.48;67.64;100264.53;5961915;30;20204;-75
2021/07/29 06:41:51;;;;;;;4.88;4.65;;;;;;;22.53;68.30;100262.47;5961588;30;20286;-75
2021/07/29 06:44:57;;;;;;;4.55;4.35;;;;;;;22.63;66.34;100267.03;5961699;30;20204;-75
2021/07/29 06:48:06;;;;;;;4.28;4.10;;;;;;;22.69;65.69;100265.81;5961789;30;20220;-75
2021/07/29 06:51:14;;;;;;;4.00;3.78;;;;;;;22.76;64.19;100260.63;5961535;30;20194;-75
2021/07/29 06:54:18;;;;;;;3.42;3.33;;;;;;;22.82;63.61;100259.41;5961683;30;20200;-75
2021/07/29 06:57:22;;;;;;;4.28;3.88;;;;;;;22.99;64.00;100254.00;5960460;29;20454;-75
2021/07/29 07:00:27;;;;;;;4.05;3.83;;;;;;;23.24;63.57;100245.03;5961370;30;20381;-76
2021/07/29 07:03:34;;;;;;;3.95;3.63;;;;;;;23.26;61.23;100248.34;5961325;30;20249;-76
2021/07/29 07:06:39;;;;;;;3.88;3.38;;;;;;;23.34;60.16;100244.78;5960208;30;20495;-76
2021/07/29 07:09:46;;;;;;;3.65;3.40;;;;;;;23.41;59.57;100250.78;5960802;30;20401;-77
2021/07/29 07:12:52;;;;;;;4.18;3.30;;;;;;;23.37;59.16;100248.97;5960727;30;20194;-76
2021/07/29 07:15:56;;;;;;;5.00;3.50;;;;;;;23.48;59.20;100262.31;5959711;30;20416;-76
2021/07/29 07:19:02;;;;;;;3.60;3.30;;;;;;;23.56;59.35;100241.22;5959694;30;20485;-76
2021/07/29 07:22:07;;;;;;;3.85;3.70;;;;;;;23.58;58.88;100234.19;5960686;30;20194;-76
2021/07/29 07:25:12;;;;;;;4.18;3.97;;;;;;;23.56;59.95;100230.91;5960689;30;20220;-75
2021/07/29 07:28:21;;;;;;;3.35;3.17;;;;;;;23.66;58.04;100230.66;5960200;30;20380;-76
2021/07/29 07:31:25;;;;;;;3.75;3.50;;;;;;;23.70;58.08;100230.03;5960577;30;20261;-76
2021/07/29 07:34:31;;;;;;;7.88;3.70;;;;;;;23.68;58.84;100228.38;5959623;29;20395;-76
2021/07/29 07:37:35;;;;;;;3.75;3.55;;;;;;;23.80;59.36;100229.75;5959234;30;20346;-76
2021/07/29 07:40:40;;;;;;;4.50;3.80;;;;;;;23.86;59.22;100222.88;5960500;29;20194;-76
2021/07/29 07:43:44;;;;;;;4.05;3.95;;;;;;;23.90;58.77;100223.91;5959197;29;20194;-76
2021/07/29 07:46:48;;;;;;;6.63;3.88;;;;;;;23.94;58.57;100220.16;5960128;30;20220;-76
2021/07/29 07:49:55;;;;;;;4.70;3.85;;;;;;;24.00;57.92;100216.09;5960408;30;20197;-76
2021/07/29 07:53:03;;;;;;;4.63;4.22;;;;;;;24.06;57.88;100219.56;5960005;30;20266;-76
2021/07/29 07:56:09;;;;;;;3.70;3.50;;;;;;;24.03;57.03;100220.22;5958797;30;20277;-76
2021/07/29 07:59:14;;;;;;;3.70;3.60;;;;;;;24.11;56.41;100214.69;5959782;30;20202;-76
2021/07/29 08:02:18;;;;;;;3.60;3.50;;;;;;;24.11;55.80;100213.88;5959610;30;20259;-76
2021/07/29 08:05:24;;;;;;;3.70;3.50;;;;;;;24.13;56.40;100208.81;5959888;30;20277;-76
2021/07/29 08:08:30;;;;;;;4.50;3.72;;;;;;;24.14;56.90;100219.63;5957814;29;20209;-76
2021/07/29 08:11:34;;;;;;;3.88;3.67;;;;;;;24.24;57.09;100207.38;5959474;30;20200;-76
2021/07/29 08:14:39;;;;;;;4.32;4.00;;;;;;;24.22;57.49;100212.44;5959358;29;20210;-76
2021/07/29 08:17:47;;;;;;;5.90;3.70;;;;;;;24.29;57.50;100215.59;5958378;30;20437;-76
2021/07/29 08:20:53;;;;;;;4.60;4.30;;;;;;;24.17;57.31;100207.00;5959469;30;20201;-75
2021/07/29 08:23:59;;;;;;;4.38;4.20;;;;;;;24.17;56.20;100193.06;5959718;30;20194;-76
2021/07/29 08:27:05;;;;;;;3.50;3.50;;;;;;;24.26;56.74;100203.13;5959437;30;20198;-76
2021/07/29 08:30:10;;;;;;;4.20;4.00;;;;;;;24.31;56.54;100204.94;5958668;30;20363;-76
2021/07/29 08:33:19;;;;;;;3.85;3.65;;;;;;;24.23;55.35;100194.56;5959099;30;20193;-76
2021/07/29 08:36:26;;;;;;;4.70;4.00;;;;;;;24.26;56.22;100196.72;5959036;30;20259;-76
2021/07/29 08:39:30;;;;;;;3.67;3.50;;;;;;;24.35;56.08;100197.56;5959325;30;20194;-75
2021/07/29 08:42:36;;;;;;;4.57;4.28;;;;;;;24.22;56.06;100187.34;5959218;30;20194;-76
2021/07/29 08:45:45;;;;;;;4.63;4.22;;;;;;;24.26;55.56;100193.94;5958111;29;20527;-76
2021/07/29 08:48:52;;;;;;;3.90;3.67;;;;;;;24.36;55.13;100188.06;5958207;30;20278;-76
2021/07/29 08:51:57;;;;;;;3.92;3.83;;;;;;;24.38;53.41;100179.38;5958521;29;20272;-76
2021/07/29 08:55:02;;;;;;;3.60;3.47;;;;;;;24.30;53.98;100172.63;5957876;29;20286;-76
2021/07/29 08:58:06;;;;;;;3.70;3.53;;;;;;;24.38;54.21;100180.19;5958793;29;20222;-77
2021/07/29 09:01:14;;;;;;;3.63;3.40;;;;;;;24.37;53.13;100178.53;5958804;29;20256;-75
2021/07/29 09:04:19;;;;;;;4.07;3.80;;;;;;;24.37;54.15;100172.97;5957744;30;20246;-74
2021/07/29 09:07:24;;;;;;;3.90;3.80;;;;;;;24.36;54.63;100182.50;5958681;30;20246;-74
2021/07/29 09:10:40;;;;;;;3.70;3.50;;;;;;;24.37;54.54;100172.16;5958689;30;20194;-75
2021/07/29 09:14:01;;;;;;;3.80;3.60;;;;;;;24.48;54.95;100168.72;5957712;29;20333;-75
2021/07/29 09:17:08;;;;;;;3.72;3.72;;;;;;;24.53;54.97;100160.22;5957534;30;20222;-75
2021/07/29 09:20:20;;;;;;;3.72;3.47;;;;;;;24.57;53.66;100155.63;5957132;30;20485;-75
2021/07/29 09:23:27;;;;;;;3.45;3.25;;;;;;;24.56;52.51;100153.16;5958263;30;20193;-75
2021/07/29 09:26:55;;;;;;;3.42;3.35;;;;;;;24.47;51.59;100155.94;5958638;29;20198;-75
2021/07/29 09:30:09;;;;;;;5.32;3.13;;;;;;;24.43;51.49;100143.78;5957923;30;20223;-75
2021/07/29 09:33:18;;;;;;;3.05;3.05;;;;;;;24.57;52.00;100138.91;5957890;30;20201;-75
2021/07/29 09:36:22;;;;;;;3.33;3.22;;;;;;;24.54;51.11;100139.56;5958042;30;20217;-75
2021/07/29 09:39:27;;;;;;;3.97;3.70;;;;;;;24.53;52.13;100143.47;5957296;30;20201;-75
2021/07/29 09:42:32;;;;;;;3.42;3.33;;;;;;;24.53;51.51;100126.75;5957197;30;20201;-75
2021/07/29 09:45:36;;;;;;;6.70;3.78;;;;;;;24.61;52.64;100123.16;5957797;29;20235;-75
2021/07/29 09:48:44;;;;;;;3.42;3.38;;;;;;;24.69;52.56;100130.72;5957503;29;20229;-76
2021/07/29 09:51:50;;;;;;;3.47;3.35;;;;;;;24.77;51.36;100132.69;5958025;30;20198;-75
2021/07/29 09:55:03;;;;;;;5.50;4.20;;;;;;;24.78;49.93;100123.19;5958318;30;20194;-75
2021/07/29 09:58:07;;;;;;;3.80;3.70;;;;;;;24.82;50.67;100129.75;5957901;30;20253;-75
2021/07/29 10:01:16;;;;;;;4.25;3.95;;;;;;;24.88;50.34;100125.63;5956439;29;20193;-74
2021/07/29 10:04:29;;;;;;;4.10;3.90;;;;;;;24.89;50.22;100113.34;5957336;30;20241;-75
2021/07/29 10:07:40;;;;;;;3.47;3.38;;;;;;;25.00;50.40;100104.63;5956222;30;20255;-75
2021/07/29 10:10:45;;;;;;;3.40;3.25;;;;;;;25.04;49.93;100114.78;5957579;30;20204;-74
2021/07/29 10:13:53;;;;;;;4.25;3.33;;;;;;;25.12;50.46;100104.75;5957849;30;20201;-74
2021/07/29 10:16:59;;;;;;;4.25;3.88;;;;;;;25.18;50.34;100097.88;5956722;29;20306;-75
2021/07/29 10:20:20;;;;;;;3.88;3.25;;;;;;;25.08;49.54;100101.00;5956798;30;20204;-76
2021/07/29 10:23:30;;;;;;;5.20;3.78;;;;;;;25.09;50.60;100105.44;5956150;30;20482;-76
2021/07/29 10:27:10;;;;;;;8.05;3.67;;;;;;;25.01;50.00;100103.50;5957376;30;20197;-75
2021/07/29 10:30:36;;;;;;;4.50;4.05;;;;;;;24.91;50.47;100101.03;5957411;30;20194;-76
2021/07/29 10:33:43;;;;;;;6.20;3.67;;;;;;;24.94;50.03;100091.97;5957176;30;20194;-76
2021/07/29 10:36:53;;;;;;;7.28;3.45;;;;;;;24.93;49.01;100095.94;5957300;30;20291;-76
2021/07/29 10:39:59;;;;;;;3.45;3.25;;;;;;;24.93;48.38;100093.16;5956430;30;20383;-76
2021/07/29 10:43:40;;;;;;;3.10;3.00;;;;;;;25.07;47.65;100085.41;5958820;30;20259;-76
2021/07/29 10:47:07;;;;;;;2.80;2.70;;;;;;;25.04;47.57;100084.09;5956247;30;20197;-75
2021/07/29 10:50:20;;;;;;;3.28;3.10;;;;;;;25.03;45.11;100073.28;5956314;30;20561;-76
2021/07/29 10:53:31;;;;;;;3.70;3.30;;;;;;;25.05;46.82;100070.97;5956055;30;20194;-76
2021/07/29 10:56:37;;;;;;;3.13;3.03;;;;;;;25.13;47.91;100067.34;5957364;29;20198;-76
2021/07/29 10:59:45;;;;;;;3.55;3.40;;;;;;;25.20;47.86;100076.03;5956428;29;20293;-76
2021/07/29 11:02:52;;;;;;;4.35;3.53;;;;;;;25.09;48.16;100066.38;5956656;30;20290;-76
2021/07/29 11:06:05;;;;;;;3.17;3.03;;;;;;;25.14;48.73;100057.81;5956381;30;20251;-76
2021/07/29 11:09:14;;;;;;;4.25;3.13;;;;;;;25.20;49.02;100054.50;5955756;30;20527;-76
2021/07/29 11:12:19;;;;;;;3.97;3.67;;;;;;;25.33;49.30;100055.47;5957144;30;20200;-75
2021/07/29 11:15:28;;;;;;;9.25;3.58;;;;;;;25.20;46.91;100039.72;5955753;30;20485;-76
2021/07/29 11:18:32;;;;;;;3.80;3.50;;;;;;;25.28;49.43;100030.50;5958191;29;20263;-75
2021/07/29 11:21:36;;;;;;;3.92;3.60;;;;;;;25.33;47.82;100024.75;5960644;30;20200;-77
2021/07/29 11:24:40;;;;;;;3.72;3.42;;;;;;;25.18;49.06;100026.13;5959661;30;20483;-76
2021/07/29 11:27:44;;;;;;;6.20;3.55;;;;;;;25.25;50.99;100022.81;5960560;30;20233;-76
2021/07/29 11:30:50;;;;;;;5.47;4.00;;;;;;;25.20;51.54;100045.31;5959548;30;20197;-76
2021/07/29 11:33:59;;;;;;;4.45;4.07;;;;;;;25.21;52.99;100044.19;5959480;30;20522;-76
2021/07/29 11:37:03;;;;;;;4.35;3.83;;;;;;;25.20;54.29;100028.56;5959516;30;20220;-76
2021/07/29 11:40:20;;;;;;;4.57;4.20;;;;;;;25.17;55.29;100030.06;5960718;30;20218;-75
2021/07/29 11:43:26;;;;;;;4.38;3.80;;;;;;;25.22;55.56;100026.25;5960101;30;20225;-75
2021/07/29 11:46:31;;;;;;;14.77;4.13;;;;;;;25.29;55.39;100023.78;5960775;30;20194;-75
2021/07/29 11:49:49;;;;;;;8.65;4.35;;;;;;;25.27;54.50;100043.66;5960026;30;20217;-77
2021/07/29 11:52:53;;;;;;;6.85;3.75;;;;;;;25.25;53.93;100031.19;5959112;29;20532;-76
2021/07/29 11:55:58;;;;;;;3.88;3.53;;;;;;;25.17;54.63;100034.81;5958965;30;20380;-76
2021/07/29 11:59:05;;;;;;;4.90;4.40;;;;;;;25.04;54.75;100024.69;5960255;30;20221;-76
2021/07/29 12:02:12;;;;;;;8.90;3.88;;;;;;;25.18;54.90;100025.28;5958787;29;20210;-76
2021/07/29 12:05:18;;;;;;;4.00;3.80;;;;;;;25.13;55.47;100017.09;5959362;30;20241;-76
2021/07/29 12:08:23;;;;;;;4.72;4.28;;;;;;;25.14;55.68;100024.34;5958862;29;20217;-76
2021/07/29 12:11:31;;;;;;;8.13;4.03;;;;;;;25.24;56.23;100018.38;5959928;30;20257;-76
2021/07/29 12:14:37;;;;;;;3.97;3.80;;;;;;;25.19;55.90;100015.78;5959061;30;20197;-76
2021/07/29 12:17:43;;;;;;;3.75;3.42;;;;;;;25.31;54.31;100013.09;5960028;30;20198;-76
2021/07/29 12:20:56;;;;;;;3.33;3.22;;;;;;;25.29;52.87;100033.00;5961183;30;20308;-76
2021/07/29 12:24:01;;;;;;;2.42;2.42;;;;;;;25.06;49.56;100022.38;5958957;30;20252;-76
2021/07/29 12:27:07;;;;;;;2.50;2.50;;;;;;;25.01;50.75;100019.78;5958435;29;20512;-76
2021/07/29 12:30:31;;;;;;;3.70;2.50;;;;;;;24.79;47.76;100023.56;5957599;29;20508;-77
2021/07/29 12:33:48;;;;;;;2.63;2.53;;;;;;;24.62;47.27;100016.03;5959284;30;20194;-76
2021/07/29 12:36:54;;;;;;;2.60;2.40;;;;;;;24.76;48.67;100019.44;5958317;30;20511;-75
2021/07/29 12:39:58;;;;;;;2.90;2.80;;;;;;;24.56;49.33;100008.97;5958256;30;20282;-75
2021/07/29 12:43:23;;;;;;;2.97;2.75;;;;;;;24.40;48.83;100016.19;5958226;30;20201;-76
2021/07/29 12:46:28;;;;;;;2.60;2.50;;;;;;;24.38;49.35;100007.34;5957978;29;20232;-76
2021/07/29 12:49:40;;;;;;;2.70;2.70;;;;;;;24.49;49.63;100002.25;5958850;30;20238;-76
2021/07/29 12:52:45;;;;;;;3.05;2.95;;;;;;;24.64;50.15;99996.19;5958824;30;20197;-75
2021/07/29 12:55:50;;;;;;;2.80;2.80;;;;;;;24.80;50.56;99992.59;5958995;30;20194;-75
2021/07/29 12:58:54;;;;;;;2.70;2.70;;;;;;;24.78;50.71;99983.69;5957314;30;20507;-75
2021/07/29 13:01:59;;;;;;;2.83;2.78;;;;;;;24.84;50.95;99976.81;5958833;30;20237;-75
2021/07/29 13:05:07;;;;;;;3.10;3.00;;;;;;;24.97;51.14;99979.72;5959057;30;20245;-75
2021/07/29 13:08:14;;;;;;;2.90;2.90;;;;;;;24.95;50.13;99966.09;5958612;30;20194;-75
2021/07/29 13:11:21;;;;;;;6.57;2.95;;;;;;;24.78;50.33;99978.13;5958572;30;20204;-76
2021/07/29 13:14:27;;;;;;;9.20;2.80;;;;;;;24.75;49.35;100003.88;5957286;30;20390;-75
2021/07/29 13:17:33;;;;;;;9.52;2.80;;;;;;;24.55;48.02;100012.91;5958262;30;20232;-77
2021/07/29 13:20:44;;;;;;;6.07;2.28;;;;;;;24.26;47.35;100021.94;5957885;29;20285;-75
2021/07/29 13:23:48;;;;;;;5.65;2.10;;;;;;;23.88;49.03;100025.63;5958509;30;20194;-76
2021/07/29 13:26:52;;;;;;;2.05;1.95;;;;;;;23.93;51.89;100017.13;5958041;30;20225;-76
2021/07/29 13:30:01;;;;;;;2.30;2.20;;;;;;;24.02;52.30;100015.16;5957974;30;20198;-76
2021/07/29 13:33:13;;;;;;;3.17;2.08;;;;;;;23.73;52.73;100040.03;5958053;30;20194;-76
2021/07/29 13:36:18;;;;;;;2.33;2.10;;;;;;;23.66;54.31;100032.94;5956892;30;20541;-76
2021/07/29 13:39:23;;;;;;;2.40;2.33;;;;;;;23.65;54.34;100028.50;5957804;30;20296;-76
2021/07/29 13:42:28;;;;;;;1.90;1.80;;;;;;;23.87;55.35;100023.97;5957375;30;20194;-76
2021/07/29 13:45:35;;;;;;;2.00;1.95;;;;;;;23.92;54.82;100032.19;5957786;29;20201;-76
2021/07/29 13:48:39;;;;;;;2.10;2.00;;;;;;;24.11;54.86;100014.03;5958034;30;20193;-76
2021/07/29 13:51:45;;;;;;;2.80;2.08;;;;;;;24.06;52.60;100016.16;5956783;30;20415;-76
2021/07/29 13:54:50;;;;;;;2.20;2.10;;;;;;;23.96;51.68;100005.34;5957845;29;20194;-75
2021/07/29 13:57:56;;;;;;;2.35;2.10;;;;;;;24.09;52.08;100009.94;5956510;30;20253;-77
2021/07/29 14:01:00;;;;;;;2.10;2.00;;;;;;;24.11;51.27;99996.53;5956938;30;20263;-76
2021/07/29 14:04:05;;;;;;;2.38;2.30;;;;;;;24.27;50.46;99992.09;5957325;30;20269;-76
2021/07/29 14:07:14;;;;;;;2.50;2.05;;;;;;;24.15;48.02;99980.78;5958044;30;20193;-75
2021/07/29 14:10:18;;;;;;;2.20;2.10;;;;;;;24.30;48.72;99999.81;5958013;30;20197;-76
2021/07/29 14:13:22;;;;;;;2.60;2.50;;;;;;;24.44;48.21;99980.94;5956394;30;20416;-76
2021/07/29 14:16:28;;;;;;;3.17;2.38;;;;;;;24.31;48.95;99973.56;5957721;30;20194;-76
2021/07/29 14:19:42;;;;;;;2.05;1.95;;;;;;;24.37;48.18;99971.44;5957417;30;20296;-76
2021/07/29 14:23:09;;;;;;;2.20;2.20;;;;;;;24.55;47.45;99957.13;5957316;30;20246;-75
2021/07/29 14:26:17;;;;;;;2.33;2.22;;;;;;;25.06;47.26;99955.41;5957246;29;20194;-76
2021/07/29 14:29:21;;;;;;;2.25;2.20;;;;;;;24.97;45.45;99951.81;5956023;30;20202;-76
2021/07/29 14:32:25;;;;;;;2.35;2.25;;;;;;;25.15;45.22;99943.06;5956013;30;20497;-75
2021/07/29 14:35:29;;;;;;;2.35;2.35;;;;;;;25.25;45.42;99947.44;5956944;30;20205;-75